Time;durP1;ratioP1;P1;durP2;ratioP2;P2;SDS_P1;SDS_P2;PMS_P1;PMS_P2;Temp;Humidity;BMP_temperature;BMP_pressure;BME280_temperature;BME280_humidity;BME280_pressure;Samples;Min_cycle;Max_cycle;Signal;HPM_P1;HPM_P2
2022/03/14 00:00:02;;;;;;;;;;;;;;;21.75;34.82;96344.66;1994537;29;1645;-71
2022/03/14 00:01:05;;;;;;;;;;;;;;;21.73;34.81;96349.34;1991021;29;1728;-70
2022/03/14 00:02:07;;;;;;;;;;;;;;;21.74;35.23;96345.69;2001575;29;1737;-70
2022/03/14 00:03:10;;;;;;;;;;;;;;;21.77;34.97;96347.13;1995538;29;1048;-70
2022/03/14 00:04:13;;;;;;;;;;;;;;;21.84;34.81;96344.59;1994990;29;1096;-71
2022/03/14 00:05:16;;;;;;;;;;;;;;;21.86;35.01;96343.41;1995292;29;1112;-70
2022/03/14 00:06:18;;;;;;;;;;;;;;;21.89;35.15;96347.56;1994859;29;1932;-70
2022/03/14 00:07:19;;;;;;;;;;;;;;;21.89;35.20;96350.22;1994784;29;1176;-70
2022/03/14 00:08:22;;;;;;;;;;;;;;;21.89;35.06;96345.69;1994966;29;1064;-70
2022/03/14 00:09:24;;;;;;;;;;;;;;;21.90;35.00;96339.34;1994996;29;1102;-69
2022/03/14 00:10:25;;;;;;;;;;;;;;;21.90;34.89;96343.84;1995416;29;1043;-70
2022/03/14 00:11:27;;;;;;;;;;;;;;;21.91;34.92;96356.19;1993900;29;1576;-70
2022/03/14 00:12:31;;;;;;;;;;;;;;;21.94;35.22;96342.47;1982949;29;1246;-70
2022/03/14 00:13:33;;;;;;;;;;;;;;;21.94;35.20;96351.34;1994454;29;1703;-70
2022/03/14 00:14:35;;;;;;;;;;;;;;;21.92;35.10;96348.00;1994779;29;1714;-70
2022/03/14 00:15:40;;;;;;;;;;;;;;;21.97;35.07;96348.31;1994780;29;1710;-73
2022/03/14 00:16:45;;;;;;;;;;;;;;;21.93;35.23;96352.34;2001508;29;1669;-73
2022/03/14 00:17:49;;;;;;;;;;;;;;;21.89;35.42;96350.22;1995049;29;1686;-71
2022/03/14 00:18:53;;;;;;;;;;;;;;;21.91;35.10;96350.84;1994963;29;1676;-71
2022/03/14 00:19:59;;;;;;;;;;;;;;;21.86;35.54;96353.22;1987755;29;1707;-74
2022/03/14 00:21:01;;;;;;;;;;;;;;;21.83;35.36;96353.59;1987896;29;1161;-71
2022/03/14 00:22:03;;;;;;;;;;;;;;;21.83;35.70;96361.59;1988494;29;1765;-73
2022/03/14 00:23:05;;;;;;;;;;;;;;;21.83;35.39;96348.25;1997241;29;1679;-73
2022/03/14 00:24:08;;;;;;;;;;;;;;;21.81;35.68;96351.13;2001918;29;1602;-71
2022/03/14 00:25:10;;;;;;;;;;;;;;;21.82;35.94;96354.63;1995257;29;1647;-72
2022/03/14 00:26:12;;;;;;;;;;;;;;;21.84;35.80;96352.59;1993737;29;1915;-72
2022/03/14 00:27:14;;;;;;;;;;;;;;;21.86;35.95;96353.22;1994520;29;1474;-72
2022/03/14 00:28:16;;;;;;;;;;;;;;;21.85;35.52;96351.56;2001720;29;1667;-72
2022/03/14 00:29:19;;;;;;;;;;;;;;;21.88;36.15;96353.88;2001196;29;1761;-72
2022/03/14 00:30:20;;;;;;;;;;;;;;;21.87;35.90;96354.91;2002217;29;1075;-74
2022/03/14 00:31:22;;;;;;;;;;;;;;;21.90;35.93;96352.69;2001567;29;1671;-72
2022/03/14 00:32:24;;;;;;;;;;;;;;;21.85;35.74;96352.41;1995209;29;1722;-73
2022/03/14 00:33:26;;;;;;;;;;;;;;;21.84;36.18;96356.09;2001525;29;1643;-74
2022/03/14 00:34:27;;;;;;;;;;;;;;;21.78;36.49;96356.81;1997558;29;1020;-73
2022/03/14 00:35:29;;;;;;;;;;;;;;;21.78;36.50;96352.31;2002353;29;1206;-72
2022/03/14 00:36:31;;;;;;;;;;;;;;;21.79;36.51;96358.47;2001855;29;1752;-72
2022/03/14 00:37:33;;;;;;;;;;;;;;;21.76;36.35;96354.31;1995245;29;1132;-73
2022/03/14 00:38:36;;;;;;;;;;;;;;;21.79;36.59;96358.47;1994566;29;1781;-72
2022/03/14 00:39:38;;;;;;;;;;;;;;;21.78;36.48;96368.34;1994665;29;1172;-73
2022/03/14 00:40:39;;;;;;;;;;;;;;;21.73;36.67;96354.69;1995402;29;1025;-73
2022/03/14 00:41:41;;;;;;;;;;;;;;;21.70;36.81;96360.38;1994453;29;1477;-70
2022/03/14 00:42:43;;;;;;;;;;;;;;;21.71;37.29;96359.38;1995184;29;1709;-70
2022/03/14 00:43:45;;;;;;;;;;;;;;;21.67;37.38;96360.75;1994763;29;1448;-70
2022/03/14 00:44:48;;;;;;;;;;;;;;;21.72;36.76;96352.19;1995193;29;1504;-70
2022/03/14 00:45:49;;;;;;;;;;;;;;;21.69;36.99;96358.72;1991039;29;1613;-74
2022/03/14 00:46:51;;;;;;;;;;;;;;;21.69;37.16;96360.56;1994248;29;1908;-70
2022/03/14 00:47:53;;;;;;;;;;;;;;;21.68;36.89;96359.72;2002545;29;1745;-70
2022/03/14 00:48:55;;;;;;;;;;;;;;;21.67;37.29;96360.75;2001863;29;1551;-71
2022/03/14 00:49:57;;;;;;;;;;;;;;;21.65;37.38;96357.41;1994435;29;1602;-70
2022/03/14 00:50:59;;;;;;;;;;;;;;;21.65;37.39;96362.75;1994571;29;1706;-70
2022/03/14 00:52:00;;;;;;;;;;;;;;;21.66;37.14;96364.44;1993807;29;1198;-70
2022/03/14 00:53:02;;;;;;;;;;;;;;;21.66;37.29;96364.44;1995148;29;1719;-70
2022/03/14 00:54:04;;;;;;;;;;;;;;;21.65;37.34;96373.44;2001827;29;1657;-69
2022/03/14 00:55:06;;;;;;;;;;;;;;;21.64;37.32;96371.78;2001602;29;1701;-69
2022/03/14 00:56:07;;;;;;;;;;;;;;;21.59;37.65;96358.13;1991042;29;1631;-70
2022/03/14 00:57:09;;;;;;;;;;;;;;;21.62;37.31;96370.31;1994092;29;1688;-71
2022/03/14 00:58:11;;;;;;;;;;;;;;;21.63;37.28;96366.59;1995482;29;1226;-70
2022/03/14 00:59:13;;;;;;;;;;;;;;;21.67;37.22;96368.75;1994914;29;1720;-70
2022/03/14 01:00:14;;;;;;;;;;;;;;;21.66;37.17;96368.91;1995168;29;1681;-75
2022/03/14 01:01:16;;;;;;;;;;;;;;;21.65;37.71;96367.28;2002175;29;1784;-74
2022/03/14 01:02:18;;;;;;;;;;;;;;;21.65;37.56;96367.28;2001712;29;1589;-74
2022/03/14 01:03:20;;;;;;;;;;;;;;;21.69;37.37;96368.59;1994685;29;1629;-75
2022/03/14 01:04:22;;;;;;;;;;;;;;;21.69;37.32;96369.41;1995730;29;1641;-75
2022/03/14 01:05:24;;;;;;;;;;;;;;;21.64;37.27;96369.13;1994595;29;1668;-73
2022/03/14 01:06:26;;;;;;;;;;;;;;;21.67;37.05;96368.75;2002905;29;1607;-75
2022/03/14 01:07:27;;;;;;;;;;;;;;;21.67;37.33;96376.78;1997086;29;1915;-74
2022/03/14 01:08:29;;;;;;;;;;;;;;;21.71;37.43;96366.56;2001625;29;1752;-75
2022/03/14 01:09:31;;;;;;;;;;;;;;;21.68;37.12;96367.72;2002628;29;1726;-74
2022/03/14 01:10:33;;;;;;;;;;;;;;;21.72;37.31;96374.41;1993898;29;1686;-73
2022/03/14 01:11:35;;;;;;;;;;;;;;;21.71;37.28;96371.88;1995127;29;1740;-76
2022/03/14 01:12:37;;;;;;;;;;;;;;;21.74;37.13;96382.22;1994600;29;1754;-73
2022/03/14 01:13:38;;;;;;;;;;;;;;;21.74;37.28;96377.72;2001947;29;1192;-76
2022/03/14 01:14:42;;;;;;;;;;;;;;;21.77;37.22;96374.69;2002762;29;1588;-76
2022/03/14 01:15:43;;;;;;;;;;;;;;;21.81;37.13;96383.16;1994665;29;1583;-76
2022/03/14 01:16:45;;;;;;;;;;;;;;;21.82;37.27;96375.97;1994751;29;1578;-76
2022/03/14 01:17:47;;;;;;;;;;;;;;;21.85;37.08;96378.28;1986443;29;1662;-74
2022/03/14 01:18:48;;;;;;;;;;;;;;;21.85;37.18;96375.63;1990014;29;1681;-75
2022/03/14 01:19:50;;;;;;;;;;;;;;;21.95;36.69;96374.38;1995546;29;1699;-74
2022/03/14 01:20:51;;;;;;;;;;;;;;;21.96;36.62;96391.22;1994442;29;1105;-77
2022/03/14 01:21:53;;;;;;;;;;;;;;;21.93;37.11;96386.25;1994661;29;1671;-73
2022/03/14 01:22:55;;;;;;;;;;;;;;;21.86;37.40;96382.63;1994624;29;1544;-76
2022/03/14 01:23:57;;;;;;;;;;;;;;;21.91;37.33;96385.59;2001127;29;1687;-76
2022/03/14 01:24:59;;;;;;;;;;;;;;;21.92;37.02;96382.75;2002040;29;1647;-76
2022/03/14 01:26:01;;;;;;;;;;;;;;;21.92;37.31;96387.25;1994928;29;1047;-75
2022/03/14 01:27:03;;;;;;;;;;;;;;;21.92;36.97;96382.75;1994875;29;1990;-74
2022/03/14 01:28:05;;;;;;;;;;;;;;;21.88;37.39;96386.78;1995297;29;1692;-76
2022/03/14 01:29:07;;;;;;;;;;;;;;;21.93;37.52;96387.06;1992420;29;1758;-75
2022/03/14 01:30:10;;;;;;;;;;;;;;;22.02;36.71;96385.97;1993912;29;1588;-72
2022/03/14 01:31:12;;;;;;;;;;;;;;;22.00;36.99;96387.19;1995025;29;1033;-72
2022/03/14 01:32:13;;;;;;;;;;;;;;;22.06;37.42;96385.63;1994940;29;1770;-76
2022/03/14 01:33:15;;;;;;;;;;;;;;;22.06;36.90;96383.78;1994847;29;1109;-77
2022/03/14 01:34:17;;;;;;;;;;;;;;;21.97;36.95;96379.50;2001657;29;1737;-76
2022/03/14 01:35:18;;;;;;;;;;;;;;;21.89;37.25;96390.31;2002052;29;1551;-77
2022/03/14 01:36:20;;;;;;;;;;;;;;;21.84;37.39;96379.31;1994768;29;1647;-77
2022/03/14 01:37:22;;;;;;;;;;;;;;;21.82;37.47;96384.00;1995146;29;1060;-75
2022/03/14 01:38:23;;;;;;;;;;;;;;;21.91;37.83;96377.56;1995700;29;1001;-76
2022/03/14 01:39:25;;;;;;;;;;;;;;;21.91;37.81;96388.25;2001505;29;1701;-76
2022/03/14 01:40:28;;;;;;;;;;;;;;;21.97;37.52;96388.38;1998045;29;1023;-76
2022/03/14 01:41:29;;;;;;;;;;;;;;;21.90;37.05;96392.78;2002791;29;1657;-77
2022/03/14 01:42:31;;;;;;;;;;;;;;;21.89;37.20;96390.31;2002952;29;1079;-76
2022/03/14 01:43:33;;;;;;;;;;;;;;;21.82;37.23;96387.50;1996511;29;1633;-76
2022/03/14 01:44:35;;;;;;;;;;;;;;;21.79;37.17;96393.19;2003224;29;1667;-77
2022/03/14 01:45:36;;;;;;;;;;;;;;;21.77;37.06;96398.75;2003259;29;1785;-74
2022/03/14 01:46:38;;;;;;;;;;;;;;;21.71;37.38;96396.75;1996325;29;1630;-74
2022/03/14 01:47:41;;;;;;;;;;;;;;;21.71;37.49;96403.94;1995600;29;1986;-74
2022/03/14 01:48:43;;;;;;;;;;;;;;;21.69;37.31;96401.47;2003168;29;1735;-75
2022/03/14 01:49:46;;;;;;;;;;;;;;;21.71;37.35;96404.78;2003257;29;1121;-78
2022/03/14 01:50:47;;;;;;;;;;;;;;;21.73;37.18;96405.44;1997057;29;1529;-77
2022/03/14 01:51:52;;;;;;;;;;;;;;;21.76;37.02;96402.41;1991851;29;1576;-77
2022/03/14 01:52:54;;;;;;;;;;;;;;;21.75;37.26;96399.91;1996920;29;1682;-77
2022/03/14 01:53:55;;;;;;;;;;;;;;;21.77;37.31;96412.09;1996486;29;1723;-77
2022/03/14 01:54:57;;;;;;;;;;;;;;;21.74;37.24;96401.78;1995982;29;1862;-77
2022/03/14 01:55:59;;;;;;;;;;;;;;;21.72;37.50;96403.78;1995983;29;1678;-77
2022/03/14 01:57:00;;;;;;;;;;;;;;;21.71;37.59;96404.78;1995282;29;1701;-77
2022/03/14 01:58:03;;;;;;;;;;;;;;;21.70;37.41;96400.44;1989167;29;1896;-77
2022/03/14 01:59:06;;;;;;;;;;;;;;;21.69;37.32;96404.13;1996056;29;1488;-77
2022/03/14 02:00:09;;;;;;;;;;;;;;;21.74;37.44;96409.78;1996741;29;1619;-79
2022/03/14 02:01:10;;;;;;;;;;;;;;;21.74;37.23;96406.25;2003400;29;1720;-78
2022/03/14 02:02:13;;;;;;;;;;;;;;;21.74;37.39;96409.78;1998725;29;1465;-77
2022/03/14 02:03:15;;;;;;;;;;;;;;;21.75;37.31;96411.44;1996379;29;1741;-78
2022/03/14 02:04:18;;;;;;;;;;;;;;;21.72;37.25;96411.78;2003618;29;928;-78
2022/03/14 02:05:20;;;;;;;;;;;;;;;21.70;37.26;96419.16;2003342;29;1761;-80
2022/03/14 02:06:22;;;;;;;;;;;;;;;21.73;37.30;96415.28;1997280;29;1692;-75
2022/03/14 02:07:24;;;;;;;;;;;;;;;21.72;37.53;96421.66;1995378;29;1911;-74
2022/03/14 02:08:26;;;;;;;;;;;;;;;21.69;37.37;96414.81;1988334;29;1886;-75
2022/03/14 02:09:28;;;;;;;;;;;;;;;21.69;37.32;96414.00;1995445;29;1650;-73
2022/03/14 02:10:29;;;;;;;;;;;;;;;21.64;37.48;96417.19;2003380;29;1778;-75
2022/03/14 02:11:31;;;;;;;;;;;;;;;21.68;37.24;96414.97;2002593;29;1493;-74
2022/03/14 02:12:32;;;;;;;;;;;;;;;21.65;37.36;96416.16;1996281;29;1911;-74
2022/03/14 02:13:34;;;;;;;;;;;;;;;21.64;37.49;96422.53;1991804;29;1204;-74
2022/03/14 02:14:39;;;;;;;;;;;;;;;21.64;37.50;96419.84;1996053;29;1661;-76
2022/03/14 02:15:41;;;;;;;;;;;;;;;21.69;37.31;96417.50;1996197;29;1673;-76
2022/03/14 02:16:43;;;;;;;;;;;;;;;21.69;37.16;96428.19;2003249;29;988;-74
2022/03/14 02:17:44;;;;;;;;;;;;;;;21.68;37.18;96431.84;2002316;29;1520;-75
2022/03/14 02:18:46;;;;;;;;;;;;;;;21.64;37.24;96427.88;1996477;29;1104;-77
2022/03/14 02:19:47;;;;;;;;;;;;;;;21.65;37.43;96426.03;1995994;29;1679;-75
2022/03/14 02:20:49;;;;;;;;;;;;;;;21.73;37.22;96429.47;1996686;29;1694;-78
2022/03/14 02:21:51;;;;;;;;;;;;;;;21.75;36.99;96424.78;1997288;29;1502;-78
2022/03/14 02:22:52;;;;;;;;;;;;;;;21.80;36.93;96432.28;2003650;29;1828;-75
2022/03/14 02:23:54;;;;;;;;;;;;;;;21.79;37.12;96434.09;2003837;29;1196;-78
2022/03/14 02:24:55;;;;;;;;;;;;;;;21.78;37.10;96431.63;1984671;29;1524;-78
2022/03/14 02:25:57;;;;;;;;;;;;;;;21.79;36.91;96434.09;1993781;29;1695;-79
2022/03/14 02:26:59;;;;;;;;;;;;;;;21.83;36.98;96433.75;1996248;29;1069;-78
2022/03/14 02:28:00;;;;;;;;;;;;;;;21.85;36.75;96443.25;1994587;29;1994;-78
2022/03/14 02:29:02;;;;;;;;;;;;;;;21.79;36.85;96439.44;1996023;29;1113;-79
2022/03/14 02:30:04;;;;;;;;;;;;;;;21.82;37.01;96440.09;1995872;29;1645;-78
2022/03/14 02:31:06;;;;;;;;;;;;;;;21.85;36.74;96442.41;1996248;29;1696;-77
2022/03/14 02:32:11;;;;;;;;;;;;;;;21.84;36.88;96443.44;2002385;29;1732;-79
2022/03/14 02:33:12;;;;;;;;;;;;;;;21.83;37.08;96439.06;2002656;29;1116;-77
2022/03/14 02:34:14;;;;;;;;;;;;;;;21.79;36.98;96447.44;1996598;29;1647;-78
2022/03/14 02:35:16;;;;;;;;;;;;;;;21.82;36.81;96440.09;1992091;29;1688;-78
2022/03/14 02:36:17;;;;;;;;;;;;;;;21.84;36.95;96446.09;1996100;29;1514;-78
2022/03/14 02:37:19;;;;;;;;;;;;;;;21.86;36.77;96441.38;1996568;29;1771;-78
2022/03/14 02:38:21;;;;;;;;;;;;;;;21.82;36.83;96448.94;1995989;29;1261;-78
2022/03/14 02:39:23;;;;;;;;;;;;;;;21.81;36.79;96446.47;1995923;29;1769;-80
2022/03/14 02:40:25;;;;;;;;;;;;;;;21.80;37.15;96448.31;2002628;29;1499;-80
2022/03/14 02:41:26;;;;;;;;;;;;;;;21.81;36.98;96446.47;2002458;29;1695;-80
2022/03/14 02:42:28;;;;;;;;;;;;;;;21.81;37.16;96446.47;2002771;29;1562;-80
2022/03/14 02:43:29;;;;;;;;;;;;;;;21.81;36.90;96443.78;1987863;29;1168;-77
2022/03/14 02:44:31;;;;;;;;;;;;;;;21.85;36.71;96442.41;1988668;29;1643;-79
2022/03/14 02:45:33;;;;;;;;;;;;;;;21.80;36.95;96456.31;1995797;29;1010;-83
2022/03/14 02:46:37;;;;;;;;;;;;;;;21.83;36.96;96449.75;1990730;29;1687;-78
2022/03/14 02:47:39;;;;;;;;;;;;;;;21.83;36.70;96452.44;1997009;29;1980;-79
2022/03/14 02:48:40;;;;;;;;;;;;;;;21.81;36.79;96454.47;1994979;29;1735;-78
2022/03/14 02:49:42;;;;;;;;;;;;;;;21.76;36.98;96458.50;1996433;29;1689;-80
2022/03/14 02:50:44;;;;;;;;;;;;;;;21.77;36.89;96452.16;1995385;29;1695;-78
2022/03/14 02:51:46;;;;;;;;;;;;;;;21.82;37.05;96464.16;1995393;29;1643;-77
2022/03/14 02:52:48;;;;;;;;;;;;;;;21.85;37.15;96459.28;1995089;29;1730;-78
2022/03/14 02:53:49;;;;;;;;;;;;;;;21.95;36.70;96459.03;1995190;29;1681;-76
2022/03/14 02:54:52;;;;;;;;;;;;;;;22.08;36.72;96458.44;1995733;29;1184;-76
2022/03/14 02:55:54;;;;;;;;;;;;;;;22.18;36.22;96472.41;1995000;29;1791;-79
2022/03/14 02:56:57;;;;;;;;;;;;;;;22.17;36.21;96462.69;1995796;29;1651;-79
2022/03/14 02:57:59;;;;;;;;;;;;;;;22.21;36.08;96464.88;1991131;29;1146;-75
2022/03/14 02:59:01;;;;;;;;;;;;;;;22.24;36.04;96458.34;1995340;29;1698;-77
2022/03/14 03:00:03;;;;;;;;;;;;;;;22.14;36.39;96471.06;1995813;29;1683;-76
2022/03/14 03:01:05;;;;;;;;;;;;;;;22.14;36.50;96466.59;2002024;29;1709;-76
2022/03/14 03:02:07;;;;;;;;;;;;;;;22.15;36.27;96470.91;1995052;29;1156;-78
2022/03/14 03:03:11;;;;;;;;;;;;;;;22.11;36.48;96469.59;1990420;29;1678;-78
2022/03/14 03:04:13;;;;;;;;;;;;;;;22.08;36.62;96475.28;2002778;29;1030;-77
2022/03/14 03:05:14;;;;;;;;;;;;;;;22.10;36.28;96467.94;1995435;29;1640;-77
2022/03/14 03:06:17;;;;;;;;;;;;;;;22.15;36.51;96473.59;1995032;29;1668;-78
2022/03/14 03:07:19;;;;;;;;;;;;;;;22.13;36.37;96472.91;1996360;29;1131;-78
2022/03/14 03:08:22;;;;;;;;;;;;;;;22.16;36.28;96477.91;1990621;29;1915;-77
2022/03/14 03:09:26;;;;;;;;;;;;;;;22.12;36.38;96473.94;1994431;29;1158;-77
2022/03/14 03:10:28;;;;;;;;;;;;;;;22.09;36.48;96476.97;1995857;29;1642;-78
2022/03/14 03:11:30;;;;;;;;;;;;;;;22.10;36.68;96478.63;1995178;29;1747;-77
2022/03/14 03:12:32;;;;;;;;;;;;;;;22.14;36.35;96473.75;1995325;29;1133;-75
2022/03/14 03:13:35;;;;;;;;;;;;;;;22.14;36.80;96474.59;1995211;29;1002;-77
2022/03/14 03:14:36;;;;;;;;;;;;;;;22.16;36.14;96480.56;1994828;29;1821;-77
2022/03/14 03:15:38;;;;;;;;;;;;;;;22.17;36.48;96482.28;1988098;29;1084;-75
2022/03/14 03:16:40;;;;;;;;;;;;;;;22.17;36.46;96484.97;1994236;29;1751;-75
2022/03/14 03:17:42;;;;;;;;;;;;;;;22.17;36.18;96476.94;1995933;29;1629;-75
2022/03/14 03:18:44;;;;;;;;;;;;;;;22.15;36.29;96483.44;1995054;29;1038;-75
2022/03/14 03:19:46;;;;;;;;;;;;;;;22.18;36.13;96483.94;1983513;29;1101;-75
2022/03/14 03:20:47;;;;;;;;;;;;;;;22.19;36.29;96482.91;1995088;29;1730;-75
2022/03/14 03:21:49;;;;;;;;;;;;;;;22.18;36.36;96481.28;2002135;29;981;-75
2022/03/14 03:22:51;;;;;;;;;;;;;;;22.19;36.32;96488.28;2002504;29;1706;-75
2022/03/14 03:23:53;;;;;;;;;;;;;;;22.12;36.28;96481.97;2001424;29;1666;-75
2022/03/14 03:24:54;;;;;;;;;;;;;;;22.17;36.38;96484.06;1991997;29;1648;-75
2022/03/14 03:25:56;;;;;;;;;;;;;;;22.25;36.14;96484.03;1995233;29;1731;-75
2022/03/14 03:26:58;;;;;;;;;;;;;;;22.27;35.90;96487.38;1994981;29;1619;-75
2022/03/14 03:27:59;;;;;;;;;;;;;;;22.30;36.28;96488.88;1995198;29;1996;-75
2022/03/14 03:29:01;;;;;;;;;;;;;;;22.29;35.74;96488.03;1987657;29;1563;-74
2022/03/14 03:30:03;;;;;;;;;;;;;;;22.26;35.86;96492.91;1995076;29;1180;-76
2022/03/14 03:31:08;;;;;;;;;;;;;;;22.27;36.12;96491.91;1989875;29;1582;-76
2022/03/14 03:32:09;;;;;;;;;;;;;;;22.19;36.00;96488.28;1995001;29;1695;-75
2022/03/14 03:33:11;;;;;;;;;;;;;;;22.21;35.94;96488.94;1995837;29;1662;-75
2022/03/14 03:34:12;;;;;;;;;;;;;;;22.20;36.07;96484.59;2001994;29;1718;-75
2022/03/14 03:35:14;;;;;;;;;;;;;;;22.14;36.15;96485.28;2002210;29;1605;-74
2022/03/14 03:36:16;;;;;;;;;;;;;;;22.10;36.39;96488.50;1996128;29;1676;-75
2022/03/14 03:37:17;;;;;;;;;;;;;;;22.10;36.38;96494.66;1995583;29;1096;-75
2022/03/14 03:38:19;;;;;;;;;;;;;;;22.12;36.26;96492.66;1994742;29;1595;-75
2022/03/14 03:39:21;;;;;;;;;;;;;;;22.12;36.35;96491.81;1994952;29;1101;-75
2022/03/14 03:40:22;;;;;;;;;;;;;;;22.10;36.13;96494.66;1994613;29;1689;-75
2022/03/14 03:41:24;;;;;;;;;;;;;;;22.01;36.28;96496.56;1997843;29;1763;-75
2022/03/14 03:42:31;;;;;;;;;;;;;;;21.98;36.56;96493.44;1994749;29;1678;-75
2022/03/14 03:43:33;;;;;;;;;;;;;;;21.93;36.78;96499.28;2002613;29;1335;-76
2022/03/14 03:44:34;;;;;;;;;;;;;;;21.93;36.68;96496.63;2002263;29;1725;-74
2022/03/14 03:45:36;;;;;;;;;;;;;;;21.94;36.87;96505.47;2002241;29;1788;-75
2022/03/14 03:46:38;;;;;;;;;;;;;;;21.97;36.65;96507.78;1994284;29;1638;-74
2022/03/14 03:47:41;;;;;;;;;;;;;;;21.95;36.75;96507.97;1994544;29;1723;-73
2022/03/14 03:48:42;;;;;;;;;;;;;;;21.93;36.65;96503.81;1995156;29;1939;-74
2022/03/14 03:49:44;;;;;;;;;;;;;;;21.87;36.73;96504.53;1994439;29;1525;-74
2022/03/14 03:50:46;;;;;;;;;;;;;;;21.86;36.89;96505.50;1994588;29;1659;-73
2022/03/14 03:51:47;;;;;;;;;;;;;;;21.85;36.87;96501.19;1995381;29;1056;-74
2022/03/14 03:52:49;;;;;;;;;;;;;;;21.79;37.14;96508.06;1990364;29;1661;-74
2022/03/14 03:53:50;;;;;;;;;;;;;;;21.81;36.97;96510.59;1994643;29;1172;-73
2022/03/14 03:54:52;;;;;;;;;;;;;;;21.81;37.05;96510.59;1994383;29;1701;-72
2022/03/14 03:55:54;;;;;;;;;;;;;;;21.83;36.96;96516.56;2001481;29;1745;-75
2022/03/14 03:56:55;;;;;;;;;;;;;;;21.86;37.03;96510.84;1996095;29;1009;-72
2022/03/14 03:57:57;;;;;;;;;;;;;;;21.81;36.92;96507.91;1995026;29;1685;-73
2022/03/14 03:58:59;;;;;;;;;;;;;;;21.81;37.06;96515.94;2002254;29;1573;-74
2022/03/14 04:00:01;;;;;;;;;;;;;;;21.79;37.09;96516.09;2001887;29;1655;-73
2022/03/14 04:01:02;;;;;;;;;;;;;;;21.81;37.07;96507.91;1993393;29;1938;-75
2022/03/14 04:02:05;;;;;;;;;;;;;;;21.77;37.15;96518.09;1994869;29;1837;-74
2022/03/14 04:03:07;;;;;;;;;;;;;;;21.76;37.06;96514.59;1995137;29;1653;-75
2022/03/14 04:04:11;;;;;;;;;;;;;;;21.77;37.16;96516.28;1985829;29;1620;-75
2022/03/14 04:05:16;;;;;;;;;;;;;;;21.16;29.32;96528.53;2001783;29;1645;-74
2022/03/14 04:06:20;;;;;;;;;;;;;;;16.67;26.31;96521.44;2001307;29;1862;-71
2022/03/14 04:07:26;;;;;;;;;;;;;;;14.00;28.30;96527.25;1994502;29;1607;-71
2022/03/14 04:08:32;;;;;;;;;;;;;;;12.35;30.79;96531.53;1994197;29;1911;-70
2022/03/14 04:09:34;;;;;;;;;;;;;;;11.39;31.12;96529.00;1994842;29;1688;-71
2022/03/14 04:10:36;;;;;;;;;;;;;;;10.77;30.97;96532.50;1993887;29;1931;-71
2022/03/14 04:11:41;;;;;;;;;;;;;;;10.55;31.24;96538.38;1994998;29;1488;-72
2022/03/14 04:12:44;;;;;;;;;;;;;;;10.29;31.19;96534.09;2001429;29;1704;-71
2022/03/14 04:13:45;;;;;;;;;;;;;;;9.86;31.48;96537.75;2001768;29;993;-70
2022/03/14 04:14:47;;;;;;;;;;;;;;;9.64;31.15;96542.72;1990179;29;1810;-71
2022/03/14 04:15:52;;;;;;;;;;;;;;;9.56;31.85;96539.75;2001189;29;1700;-71
2022/03/14 04:16:54;;;;;;;;;;;;;;;9.41;30.91;96545.06;2001460;29;1911;-71
2022/03/14 04:17:57;;;;;;;;;;;;;;;9.34;31.35;96549.00;1995042;29;1136;-70
2022/03/14 04:18:59;;;;;;;;;;;;;;;9.16;32.08;96547.53;1994102;29;1781;-71
2022/03/14 04:20:00;;;;;;;;;;;;;;;8.98;30.76;96549.56;1987273;29;1042;-71
2022/03/14 04:21:02;;;;;;;;;;;;;;;8.77;30.58;96547.34;1986533;29;1121;-70
2022/03/14 04:22:04;;;;;;;;;;;;;;;8.40;31.58;96550.50;1993234;29;1434;-71
2022/03/14 04:23:05;;;;;;;;;;;;;;;8.41;31.40;96550.41;1995001;29;1064;-70
2022/03/14 04:24:07;;;;;;;;;;;;;;;8.33;31.26;96542.97;1995219;29;1080;-70
2022/03/14 04:25:11;;;;;;;;;;;;;;;8.44;31.40;96552.81;1994710;29;1775;-70
2022/03/14 04:26:12;;;;;;;;;;;;;;;8.34;31.38;96552.53;1989692;29;1860;-70
2022/03/14 04:27:14;;;;;;;;;;;;;;;8.18;31.06;96554.34;1994418;29;1765;-71
2022/03/14 04:28:16;;;;;;;;;;;;;;;8.01;31.16;96557.97;2001459;29;1837;-71
2022/03/14 04:29:18;;;;;;;;;;;;;;;7.93;31.27;96561.94;2000863;29;1978;-70
2022/03/14 04:30:20;;;;;;;;;;;;;;;7.66;31.33;96552.16;1993110;29;1913;-70
2022/03/14 04:31:22;;;;;;;;;;;;;;;7.74;31.46;96554.31;1994175;29;1792;-70
2022/03/14 04:32:24;;;;;;;;;;;;;;;7.67;31.10;96553.84;2001440;29;1839;-71
2022/03/14 04:33:25;;;;;;;;;;;;;;;7.80;31.33;96560.06;2001579;29;1121;-70
2022/03/14 04:34:27;;;;;;;;;;;;;;;7.79;31.60;96563.56;1993646;29;1861;-70
2022/03/14 04:35:29;;;;;;;;;;;;;;;7.80;31.08;96561.84;1986884;29;1160;-70
2022/03/14 04:36:30;;;;;;;;;;;;;;;7.61;30.69;96564.63;1989575;29;1988;-69
2022/03/14 04:37:32;;;;;;;;;;;;;;;7.27;31.20;96566.53;2001007;29;985;-70
2022/03/14 04:38:34;;;;;;;;;;;;;;;7.33;31.41;96566.19;1993650;29;1847;-70
2022/03/14 04:39:36;;;;;;;;;;;;;;;7.31;31.34;96561.97;1994039;29;1778;-71
2022/03/14 04:40:37;;;;;;;;;;;;;;;7.24;31.19;96574.53;1994618;29;1886;-72
2022/03/14 04:41:39;;;;;;;;;;;;;;;7.08;31.30;96574.50;2001367;29;1822;-70
2022/03/14 04:42:41;;;;;;;;;;;;;;;7.04;31.11;96574.78;2000887;29;1862;-71
2022/03/14 04:43:43;;;;;;;;;;;;;;;6.99;31.15;96583.69;1994273;29;1818;-70
2022/03/14 04:44:45;;;;;;;;;;;;;;;6.84;31.86;96578.44;1994165;29;1354;-70
2022/03/14 04:45:47;;;;;;;;;;;;;;;6.90;32.86;96581.56;1994065;29;1893;-72
2022/03/14 04:46:48;;;;;;;;;;;;;;;8.01;31.12;96584.09;1994862;29;1986;-72
2022/03/14 04:47:50;;;;;;;;;;;;;;;8.27;31.16;96579.94;1989480;29;1699;-75
2022/03/14 04:48:52;;;;;;;;;;;;;;;9.34;31.21;96580.44;1994717;29;1919;-71
2022/03/14 04:49:53;;;;;;;;;;;;;;;10.93;29.17;96582.16;1995055;29;1060;-72
2022/03/14 04:50:56;;;;;;;;;;;;;;;11.47;29.82;96575.75;1994855;29;1482;-69
2022/03/14 04:51:58;;;;;;;;;;;;;;;12.96;28.86;96578.63;1994868;29;1195;-71
2022/03/14 04:52:59;;;;;;;;;;;;;;;13.92;27.90;96577.19;1994182;29;1649;-71
2022/03/14 04:54:01;;;;;;;;;;;;;;;14.66;27.70;96579.00;1995247;29;1124;-71
2022/03/14 04:55:03;;;;;;;;;;;;;;;15.38;26.85;96576.28;1994698;29;1735;-73
2022/03/14 04:56:04;;;;;;;;;;;;;;;15.81;26.88;96588.38;1993905;29;1784;-68
2022/03/14 04:57:06;;;;;;;;;;;;;;;16.12;26.60;96586.47;1993827;29;1731;-67
2022/03/14 04:58:12;;;;;;;;;;;;;;;16.31;26.51;96596.22;2000935;29;1668;-70
2022/03/14 04:59:14;;;;;;;;;;;;;;;16.46;26.30;96595.81;1996209;29;1659;-68
2022/03/14 05:00:15;;;;;;;;;;;;;;;16.59;26.17;96599.84;1993625;29;1664;-68
2022/03/14 05:01:21;;;;;;;;;;;;;;;16.73;26.20;96603.00;1994175;29;1124;-68
2022/03/14 05:02:23;;;;;;;;;;;;;;;16.85;26.28;96597.44;1993887;29;1644;-68
2022/03/14 05:03:24;;;;;;;;;;;;;;;16.97;26.29;96591.97;1991125;29;1473;-68
2022/03/14 05:04:26;;;;;;;;;;;;;;;17.08;26.24;96594.47;1991848;29;1525;-68
2022/03/14 05:05:29;;;;;;;;;;;;;;;17.17;26.39;96596.22;2002006;29;1282;-68
2022/03/14 05:06:32;;;;;;;;;;;;;;;17.26;26.49;96600.66;1994257;29;1424;-67
2022/03/14 05:07:34;;;;;;;;;;;;;;;17.37;26.22;96606.78;1993325;29;1343;-68
2022/03/14 05:08:36;;;;;;;;;;;;;;;17.44;26.41;96613.16;2001205;29;1665;-68
2022/03/14 05:09:37;;;;;;;;;;;;;;;17.73;26.39;96613.00;1990326;29;1907;-67
2022/03/14 05:10:39;;;;;;;;;;;;;;;17.95;26.18;96611.78;2000481;29;1349;-71
2022/03/14 05:11:40;;;;;;;;;;;;;;;18.13;26.15;96603.81;2001341;29;1775;-69
2022/03/14 05:12:42;;;;;;;;;;;;;;;18.23;26.54;96611.75;1995066;29;1737;-69
2022/03/14 05:13:44;;;;;;;;;;;;;;;18.33;26.66;96615.16;1988898;29;1395;-70
2022/03/14 05:14:45;;;;;;;;;;;;;;;18.36;26.78;96618.34;1993867;29;1151;-69
2022/03/14 05:15:50;;;;;;;;;;;;;;;18.43;26.97;96618.56;1995113;29;1715;-70
2022/03/14 05:16:51;;;;;;;;;;;;;;;18.46;27.00;96625.41;1995421;29;1817;-69
2022/03/14 05:17:53;;;;;;;;;;;;;;;18.45;27.11;96621.91;1996962;29;1531;-69
2022/03/14 05:18:56;;;;;;;;;;;;;;;18.46;27.25;96626.22;1996482;29;1426;-67
2022/03/14 05:19:58;;;;;;;;;;;;;;;16.52;27.92;96627.03;1997348;29;1714;-68
2022/03/14 05:21:00;;;;;;;;;;;;;;;16.59;28.68;96628.13;1993128;29;1238;-68
2022/03/14 05:22:02;;;;;;;;;;;;;;;16.93;29.13;96630.34;2003399;29;1733;-68
2022/03/14 05:23:04;;;;;;;;;;;;;;;17.28;29.10;96625.22;2003515;29;1580;-70
2022/03/14 05:24:06;;;;;;;;;;;;;;;17.59;28.29;96634.72;1995410;29;1112;-67
2022/03/14 05:25:08;;;;;;;;;;;;;;;17.83;28.15;96634.22;1989793;29;1056;-67
2022/03/14 05:26:10;;;;;;;;;;;;;;;18.01;27.93;96635.09;1990010;29;1585;-67
2022/03/14 05:27:12;;;;;;;;;;;;;;;18.11;27.76;96638.53;1989464;29;1034;-67